createdAt,value
2023-05-05T00:02:16.009Z,13.36
2023-05-05T00:07:18.948Z,13.35
2023-05-05T00:12:20.590Z,13.36
2023-05-05T00:17:22.230Z,13.39
2023-05-05T00:22:25.199Z,13.45
2023-05-05T00:27:26.763Z,13.47
2023-05-05T00:32:28.413Z,13.50
2023-05-05T00:37:31.508Z,13.33
2023-05-05T00:42:39.821Z,13.37
2023-05-05T00:47:42.310Z,13.19
2023-05-05T00:52:45.272Z,13.32
2023-05-05T00:57:47.625Z,13.21
2023-05-05T01:02:49.419Z,13.21
2023-05-05T01:08:10.312Z,13.04
2023-05-05T01:13:22.531Z,13.08
2023-05-05T01:18:31.647Z,13.00
2023-05-05T01:24:06.659Z,12.78
2023-05-05T01:29:27.324Z,12.61
2023-05-05T01:34:34.639Z,12.35
2023-05-05T01:39:37.115Z,12.31
2023-05-05T01:44:39.165Z,12.28
2023-05-05T01:49:44.291Z,12.34
2023-05-05T01:54:46.595Z,12.42
2023-05-05T01:59:48.631Z,12.50
2023-05-05T02:04:52.800Z,12.41
2023-05-05T02:09:55.600Z,12.28
2023-05-05T02:14:59.801Z,12.19
2023-05-05T02:20:03.885Z,12.21
2023-05-05T02:25:06.902Z,12.22
2023-05-05T02:30:10.639Z,12.20
2023-05-05T02:35:15.851Z,11.94
2023-05-05T02:40:22.521Z,11.85
2023-05-05T02:45:26.765Z,11.67
2023-05-05T02:50:29.819Z,11.63
2023-05-05T02:55:44.067Z,11.73
2023-05-05T03:00:50.687Z,11.81
2023-05-05T03:06:00.655Z,11.87
2023-05-05T03:11:05.449Z,11.90
2023-05-05T03:16:09.459Z,12.02
2023-05-05T03:21:12.963Z,12.05
2023-05-05T03:26:17.384Z,12.11
2023-05-05T03:31:19.537Z,12.07
2023-05-05T03:36:28.557Z,12.00
2023-05-05T03:41:34.710Z,11.98
2023-05-05T03:46:37.273Z,12.02
2023-05-05T03:51:42.938Z,12.00
2023-05-05T03:56:44.719Z,11.83
2023-05-05T04:01:46.505Z,11.63
2023-05-05T04:06:49.701Z,11.58
2023-05-05T04:11:51.387Z,11.61
2023-05-05T04:16:53.585Z,11.66
2023-05-05T04:21:57.222Z,11.61
2023-05-05T04:26:59.338Z,11.65
2023-05-05T04:32:02.048Z,11.98
2023-05-05T04:37:05.714Z,12.35
2023-05-05T04:42:07.637Z,12.75
2023-05-05T04:47:12.052Z,13.04
2023-05-05T04:52:17.189Z,13.63
2023-05-05T04:57:18.881Z,14.49
2023-05-05T05:02:20.773Z,15.58
2023-05-05T05:07:26.044Z,16.40
2023-05-05T05:12:27.749Z,16.32
2023-05-05T05:17:29.532Z,16.04
2023-05-05T05:22:32.669Z,16.87
2023-05-05T05:27:34.386Z,17.52
2023-05-05T05:32:36.154Z,17.61
2023-05-05T05:37:39.421Z,17.83
2023-05-05T05:42:42.411Z,17.30
2023-05-05T05:47:44.750Z,17.23
2023-05-05T05:52:47.787Z,18.07
2023-05-05T05:57:50.212Z,18.95
2023-05-05T06:02:52.402Z,19.69
2023-05-05T06:07:59.320Z,20.02
2023-05-05T06:13:02.237Z,20.70
2023-05-05T06:18:05.725Z,20.97
2023-05-05T06:23:08.999Z,21.34
2023-05-05T06:28:14.249Z,21.75
2023-05-05T06:33:15.852Z,20.99
2023-05-05T06:38:18.867Z,20.39
2023-05-05T06:43:20.812Z,20.49
2023-05-05T06:48:28.521Z,20.97
2023-05-05T06:53:31.552Z,21.93
2023-05-05T06:58:33.216Z,22.52
2023-05-05T07:03:34.874Z,22.91
2023-05-05T07:08:37.939Z,23.15
2023-05-05T07:13:39.583Z,23.24
2023-05-05T07:18:41.251Z,23.89
2023-05-05T07:23:44.310Z,24.24
2023-05-05T07:28:45.966Z,24.30
2023-05-05T07:33:47.705Z,24.33
2023-05-05T07:38:50.675Z,22.64
2023-05-05T07:43:52.629Z,23.70
2023-05-05T07:48:54.370Z,23.75
2023-05-05T07:53:57.355Z,24.33
2023-05-05T07:58:59.146Z,24.49
2023-05-05T08:04:00.794Z,24.57
2023-05-05T08:09:04.049Z,24.47
2023-05-05T08:14:07.570Z,24.36
2023-05-05T08:19:21.134Z,25.07
2023-05-05T08:24:31.056Z,25.70
2023-05-05T08:29:32.716Z,25.97
2023-05-05T08:34:34.390Z,26.19
2023-05-05T08:39:37.636Z,26.35
2023-05-05T08:44:39.466Z,26.91
2023-05-05T08:49:45.361Z,27.29
2023-05-05T08:54:51.303Z,27.59
2023-05-05T08:59:53.531Z,27.38
2023-05-05T09:04:55.211Z,26.58
2023-05-05T09:09:59.073Z,25.97
2023-05-05T09:15:00.753Z,25.90
2023-05-05T09:20:03.829Z,26.00
2023-05-05T09:25:09.530Z,25.85
2023-05-05T09:30:14.940Z,25.86
2023-05-05T09:35:17.185Z,25.84
2023-05-05T09:40:21.196Z,25.54
2023-05-05T09:45:27.182Z,25.78
2023-05-05T09:50:28.897Z,26.54
2023-05-05T09:55:31.966Z,26.61
2023-05-05T10:00:39.668Z,27.12
2023-05-05T10:05:49.464Z,28.18
2023-05-05T10:10:53.842Z,28.10
2023-05-05T10:15:56.209Z,27.85
2023-05-05T10:20:59.343Z,27.63
2023-05-05T10:26:03.535Z,28.00
2023-05-05T10:31:16.428Z,28.57
2023-05-05T10:36:25.826Z,28.79
2023-05-05T10:41:29.554Z,28.28
2023-05-05T10:46:31.737Z,28.09
2023-05-05T10:51:41.398Z,27.80
2023-05-05T10:56:44.494Z,27.63
2023-05-05T11:01:46.108Z,27.76
2023-05-05T11:07:21.664Z,27.05
2023-05-05T11:12:24.639Z,26.17
2023-05-05T11:17:44.516Z,26.09
2023-05-05T11:23:22.958Z,25.74
2023-05-05T11:28:27.642Z,25.32
2023-05-05T11:33:30.133Z,25.28
2023-05-05T11:38:41.978Z,25.12
2023-05-05T11:43:44.981Z,25.43
2023-05-05T11:48:47.495Z,25.45
2023-05-05T11:53:49.903Z,25.75
2023-05-05T11:59:08.129Z,25.54
2023-05-05T12:04:11.686Z,24.95
2023-05-05T12:09:15.202Z,25.31
2023-05-05T12:14:18.222Z,25.43
2023-05-05T12:19:19.870Z,25.66
2023-05-05T12:24:21.498Z,25.72
2023-05-05T12:29:25.659Z,25.42
2023-05-05T12:34:27.431Z,25.22
2023-05-05T12:39:34.759Z,25.75
2023-05-05T12:44:38.333Z,25.96
2023-05-05T12:49:47.444Z,25.91
2023-05-05T12:54:56.595Z,25.98
2023-05-05T13:00:12.678Z,25.85
2023-05-05T13:05:14.394Z,25.84
2023-05-05T13:10:15.968Z,25.37
2023-05-05T13:15:19.005Z,25.61
2023-05-05T13:20:20.679Z,25.78
2023-05-05T13:25:22.280Z,25.97
2023-05-05T13:30:25.249Z,26.00
2023-05-05T13:35:26.830Z,25.82
2023-05-05T13:40:31.204Z,26.09
2023-05-05T13:45:34.368Z,26.05
2023-05-05T13:50:36.213Z,26.08
2023-05-05T13:55:37.818Z,26.18
2023-05-05T14:00:40.851Z,25.57
2023-05-05T14:05:42.730Z,25.39
2023-05-05T14:10:46.684Z,25.31
2023-05-05T14:15:50.382Z,25.23
2023-05-05T14:20:51.975Z,25.34
2023-05-05T14:25:54.034Z,24.67
2023-05-05T14:30:57.241Z,25.21
2023-05-05T14:35:59.111Z,25.08
2023-05-05T14:41:00.813Z,24.95
2023-05-05T14:46:03.833Z,24.40
2023-05-05T14:51:05.818Z,24.18
2023-05-05T14:56:07.572Z,23.77
2023-05-05T15:01:10.647Z,22.21
2023-05-05T15:06:12.338Z,21.10
2023-05-05T15:11:14.090Z,20.17
2023-05-05T15:16:18.491Z,19.97
2023-05-05T15:21:20.156Z,19.55
2023-05-05T15:26:21.803Z,18.79
2023-05-05T15:31:24.765Z,18.51
2023-05-05T15:36:26.490Z,18.10
2023-05-05T15:41:28.174Z,17.99
2023-05-05T15:46:32.423Z,18.05
2023-05-05T15:51:34.143Z,18.34
2023-05-05T15:56:35.857Z,18.76
2023-05-05T16:01:38.956Z,19.20
2023-05-05T16:06:40.690Z,19.47
2023-05-05T16:11:42.357Z,19.75
2023-05-05T16:16:45.371Z,20.12
2023-05-05T16:21:47.031Z,20.28
2023-05-05T16:26:48.842Z,20.25
2023-05-05T16:31:51.854Z,20.05
2023-05-05T16:36:53.636Z,19.88
2023-05-05T16:41:55.275Z,19.70
2023-05-05T16:46:58.337Z,19.57
2023-05-05T16:52:00.028Z,19.85
2023-05-05T16:57:01.713Z,20.04
2023-05-05T17:02:04.790Z,20.00
2023-05-05T17:07:06.536Z,19.91
2023-05-05T17:12:08.219Z,19.84
2023-05-05T17:17:11.253Z,19.76
2023-05-05T17:22:12.975Z,19.74
2023-05-05T17:27:14.708Z,19.68
2023-05-05T17:32:19.940Z,19.52
2023-05-05T17:37:27.298Z,19.49
2023-05-05T17:42:28.982Z,19.52
2023-05-05T17:47:34.720Z,19.54
2023-05-05T17:52:38.682Z,19.52
2023-05-05T17:57:40.372Z,19.55
2023-05-05T18:02:43.384Z,19.63
2023-05-05T18:07:45.122Z,19.60
2023-05-05T18:12:46.784Z,19.48
2023-05-05T18:17:49.815Z,19.41
2023-05-05T18:22:51.498Z,19.34
2023-05-05T18:27:53.105Z,19.29
2023-05-05T18:32:56.377Z,19.20
2023-05-05T18:37:58.061Z,19.08
2023-05-05T18:43:01.522Z,18.99
2023-05-05T18:48:05.162Z,18.92
2023-05-05T18:53:08.821Z,18.80
2023-05-05T18:58:10.555Z,18.67
2023-05-05T19:03:14.768Z,18.53
2023-05-05T19:08:16.715Z,18.38
2023-05-05T19:13:18.501Z,18.30
2023-05-05T19:18:21.602Z,18.25
2023-05-05T19:23:25.757Z,18.20
2023-05-05T19:28:27.468Z,18.16
2023-05-05T19:33:30.597Z,18.10
2023-05-05T19:38:32.283Z,18.07
2023-05-05T19:43:36.448Z,18.03
2023-05-05T19:48:42.836Z,18.01
2023-05-05T19:53:44.520Z,17.97
2023-05-05T19:58:53.814Z,17.82
2023-05-05T20:03:57.087Z,17.67
2023-05-05T20:09:01.721Z,17.57
2023-05-05T20:14:06.411Z,17.45
2023-05-05T20:19:11.675Z,17.37
2023-05-05T20:24:13.288Z,17.29
2023-05-05T20:29:16.354Z,17.18
2023-05-05T20:34:19.397Z,17.18
2023-05-05T20:39:21.116Z,17.15
2023-05-05T20:44:22.731Z,17.02
2023-05-05T20:49:25.775Z,16.94
2023-05-05T20:54:31.781Z,16.85
2023-05-05T20:59:35.321Z,16.85
2023-05-05T21:04:38.358Z,16.74
2023-05-05T21:09:40.108Z,16.66
2023-05-05T21:14:43.156Z,16.60
2023-05-05T21:19:46.111Z,16.57
2023-05-05T21:24:47.947Z,16.57
2023-05-05T21:29:50.691Z,16.58
2023-05-05T21:34:53.672Z,16.57
2023-05-05T21:39:55.363Z,16.50
2023-05-05T21:44:57.025Z,16.42
2023-05-05T21:50:00.024Z,16.32
2023-05-05T21:55:02.148Z,16.22
2023-05-05T22:00:07.418Z,16.16
2023-05-05T22:05:16.402Z,16.11
2023-05-05T22:10:18.077Z,15.98
2023-05-05T22:15:19.621Z,15.82
2023-05-05T22:20:22.697Z,15.63
2023-05-05T22:25:24.412Z,15.47
2023-05-05T22:30:26.049Z,15.33
2023-05-05T22:35:29.048Z,15.17
2023-05-05T22:40:30.897Z,15.05
2023-05-05T22:45:32.496Z,14.93
2023-05-05T22:50:35.970Z,14.86
2023-05-05T22:55:37.640Z,14.82
2023-05-05T23:00:39.322Z,14.84
2023-05-05T23:05:42.292Z,14.83
2023-05-05T23:10:44.343Z,14.68
2023-05-05T23:15:45.927Z,14.61
2023-05-05T23:20:48.872Z,14.51
2023-05-05T23:25:50.445Z,14.30
2023-05-05T23:30:52.059Z,13.96
2023-05-05T23:35:55.156Z,13.82
2023-05-05T23:40:56.771Z,13.86
2023-05-05T23:45:58.358Z,13.87
2023-05-05T23:51:01.365Z,13.98
2023-05-05T23:56:03.474Z,13.97
